< < Back
Terminal Aerodrome Forecast


Current Version              Previous Versions:   1  2  3  4  5  6  7  8  9  

Terminal Aerodrome Forecast

646
FTUS42 KJAX 281100
TAFGNV
TAF
KGNV 281120Z 2812/2912 26007KT P6SM SCT250
     FM281400 25010KT P6SM SCT030 SCT250
     FM282200 26012G18KT P6SM VCSH BKN035 BKN250
     FM290200 25010KT P6SM SCT030 BKN250=

Latest METAR

296
SAUS70 KWBC 282100 RRL
MTRGNV
METAR KGNV 282053Z 26015G22KT 10SM SCT043 SCT060 32/24 A2994 RMK AO2 PK
WND 26026/2001 LTG DSNT W-N SLP134 T03170244 56018


USA.gov is the U.S. government's official web portal to all federal, state and local government web resources and services.